Time;durP1;ratioP1;P1;durP2;ratioP2;P2;SDS_P1;SDS_P2;PMS_P1;PMS_P2;Temp;Humidity;BMP_temperature;BMP_pressure;BME280_temperature;BME280_humidity;BME280_pressure;Samples;Min_cycle;Max_cycle;Signal;HPM_P1;HPM_P2
2021/09/16 00:01:05;;;;;;;6.80;3.10;;;;;;;;;;5031194;28;20391;-45
2021/09/16 00:03:31;;;;;;;6.43;3.83;;;;;;;;;;5031280;28;20419;-47
2021/09/16 00:05:57;;;;;;;2.57;2.37;;;;;;;;;;5031012;28;20450;-48
2021/09/16 00:08:23;;;;;;;4.93;3.03;;;;;;;;;;5031375;28;20462;-45
2021/09/16 00:10:49;;;;;;;7.50;3.13;;;;;;;;;;5031461;28;20536;-45
2021/09/16 00:13:15;;;;;;;3.10;2.37;;;;;;;;;;5031319;28;20460;-45
2021/09/16 00:15:41;;;;;;;2.90;2.70;;;;;;;;;;5031321;28;20496;-45
2021/09/16 00:18:07;;;;;;;4.37;3.00;;;;;;;;;;5031430;28;20406;-45
2021/09/16 00:20:33;;;;;;;6.27;2.37;;;;;;;;;;5031317;28;20413;-45
2021/09/16 00:23:00;;;;;;;2.93;2.63;;;;;;;;;;5031106;28;20406;-45
2021/09/16 00:25:26;;;;;;;3.93;2.70;;;;;;;;;;5031349;28;20405;-45
2021/09/16 00:27:52;;;;;;;4.10;3.70;;;;;;;;;;5031295;28;20461;-45
2021/09/16 00:30:18;;;;;;;14.73;2.87;;;;;;;;;;5031280;28;20398;-45
2021/09/16 00:32:44;;;;;;;4.60;2.70;;;;;;;;;;5031124;28;20405;-45
2021/09/16 00:35:10;;;;;;;3.90;2.30;;;;;;;;;;5031201;28;20372;-46
2021/09/16 00:37:36;;;;;;;3.43;2.50;;;;;;;;;;5033611;28;20401;-45
2021/09/16 00:40:03;;;;;;;2.47;2.27;;;;;;;;;;5034889;28;20454;-46
2021/09/16 00:42:29;;;;;;;8.50;2.73;;;;;;;;;;5034713;28;20384;-45
2021/09/16 00:44:55;;;;;;;6.40;2.80;;;;;;;;;;5035210;28;20401;-45
2021/09/16 00:47:21;;;;;;;3.30;2.43;;;;;;;;;;5034682;28;20495;-44
2021/09/16 00:49:47;;;;;;;5.10;2.60;;;;;;;;;;5034651;28;20536;-45
2021/09/16 00:52:14;;;;;;;2.70;2.07;;;;;;;;;;5034402;28;20398;-47
2021/09/16 00:54:43;;;;;;;3.97;2.03;;;;;;;;;;5034755;28;20379;-45
2021/09/16 00:57:11;;;;;;;8.77;2.90;;;;;;;;;;5034831;28;20756;-48
2021/09/16 00:59:37;;;;;;;4.57;2.53;;;;;;;;;;5034630;28;20410;-45
2021/09/16 01:02:03;;;;;;;4.93;2.83;;;;;;;;;;5033786;28;20381;-45
2021/09/16 01:04:29;;;;;;;6.20;3.37;;;;;;;;;;5033812;28;20406;-45
2021/09/16 01:06:56;;;;;;;5.63;2.90;;;;;;;;;;5034027;28;20430;-48
2021/09/16 01:09:22;;;;;;;3.43;2.80;;;;;;;;;;5034256;28;20460;-48
2021/09/16 01:11:48;;;;;;;5.40;3.00;;;;;;;;;;5034139;28;20891;-46
2021/09/16 01:14:24;;;;;;;4.93;2.63;;;;;;;;;;5034283;28;20406;-48
2021/09/16 01:16:50;;;;;;;3.10;2.47;;;;;;;;;;5034085;28;20442;-44
2021/09/16 01:19:16;;;;;;;3.27;2.50;;;;;;;;;;5034151;28;20377;-49
2021/09/16 01:21:42;;;;;;;3.40;2.70;;;;;;;;;;5033944;28;20417;-45
2021/09/16 01:24:08;;;;;;;5.10;2.50;;;;;;;;;;5034196;28;20402;-44
2021/09/16 01:26:34;;;;;;;4.60;2.73;;;;;;;;;;5034042;28;20401;-44
2021/09/16 01:29:00;;;;;;;4.73;3.20;;;;;;;;;;5016269;28;20453;-44
2021/09/16 01:31:52;;;;;;;5.93;3.73;;;;;;;;;;5033874;28;20380;-44
2021/09/16 01:34:19;;;;;;;4.40;3.30;;;;;;;;;;5031251;28;20385;-45
2021/09/16 01:36:46;;;;;;;3.23;2.87;;;;;;;;;;5033849;28;20397;-45
2021/09/16 01:39:13;;;;;;;6.20;3.40;;;;;;;;;;5033823;28;20749;-45
2021/09/16 01:41:39;;;;;;;6.03;3.30;;;;;;;;;;5033675;28;20415;-46
2021/09/16 01:44:05;;;;;;;9.00;2.87;;;;;;;;;;5033634;28;20815;-45
2021/09/16 01:46:31;;;;;;;4.80;3.63;;;;;;;;;;5033755;28;20803;-44
2021/09/16 01:48:59;;;;;;;5.73;4.20;;;;;;;;;;5032953;28;20461;-45
2021/09/16 01:51:24;;;;;;;3.23;3.03;;;;;;;;;;5033516;28;20468;-47
2021/09/16 01:53:51;;;;;;;2.13;2.03;;;;;;;;;;5033415;28;20493;-47
2021/09/16 01:56:16;;;;;;;11.30;3.67;;;;;;;;;;5033347;28;20429;-48
2021/09/16 01:58:42;;;;;;;36.93;3.57;;;;;;;;;;5033508;28;20377;-45
2021/09/16 02:01:08;;;;;;;3.83;3.53;;;;;;;;;;5033421;28;20392;-44
2021/09/16 02:03:34;;;;;;;4.83;3.40;;;;;;;;;;5033197;28;20381;-44
2021/09/16 02:06:00;;;;;;;5.03;3.30;;;;;;;;;;5033344;28;20393;-44
2021/09/16 02:08:26;;;;;;;4.53;3.47;;;;;;;;;;5033202;28;20464;-44
2021/09/16 02:10:52;;;;;;;7.23;3.67;;;;;;;;;;5033076;28;20525;-45
2021/09/16 02:13:18;;;;;;;4.43;4.00;;;;;;;;;;5033318;28;20385;-44
2021/09/16 02:15:44;;;;;;;5.57;3.20;;;;;;;;;;5032945;28;20445;-45
2021/09/16 02:18:10;;;;;;;4.17;3.80;;;;;;;;;;5033112;28;20399;-47
2021/09/16 02:20:36;;;;;;;4.43;4.03;;;;;;;;;;5032956;28;20405;-46
2021/09/16 02:23:02;;;;;;;3.57;3.30;;;;;;;;;;5032818;28;20379;-47
2021/09/16 02:25:28;;;;;;;5.67;3.40;;;;;;;;;;5032783;28;20468;-49
2021/09/16 02:27:54;;;;;;;3.40;3.03;;;;;;;;;;5033015;28;20437;-44
2021/09/16 02:30:20;;;;;;;3.93;3.50;;;;;;;;;;5032896;28;20415;-44
2021/09/16 02:32:47;;;;;;;4.53;3.43;;;;;;;;;;5032631;28;20410;-45
2021/09/16 02:35:13;;;;;;;6.70;3.20;;;;;;;;;;5032639;28;20459;-46
2021/09/16 02:37:40;;;;;;;5.33;2.93;;;;;;;;;;5032756;28;20387;-47
2021/09/16 02:40:07;;;;;;;5.73;2.60;;;;;;;;;;5033094;28;20381;-46
2021/09/16 02:42:33;;;;;;;4.67;2.67;;;;;;;;;;5032376;28;20441;-49
2021/09/16 02:44:59;;;;;;;8.80;2.73;;;;;;;;;;5032579;28;20420;-45
2021/09/16 02:47:25;;;;;;;1.73;1.63;;;;;;;;;;5032404;28;20433;-45
2021/09/16 02:49:51;;;;;;;3.07;2.07;;;;;;;;;;5032475;28;20401;-45
2021/09/16 02:52:17;;;;;;;4.73;2.33;;;;;;;;;;5032216;28;20429;-45
2021/09/16 02:54:43;;;;;;;3.27;2.27;;;;;;;;;;5032415;28;20385;-45
2021/09/16 02:57:09;;;;;;;21.77;3.23;;;;;;;;;;5032388;28;20393;-45
2021/09/16 02:59:35;;;;;;;3.20;2.97;;;;;;;;;;5032126;28;20379;-44
2021/09/16 03:02:01;;;;;;;4.03;2.93;;;;;;;;;;5031649;28;20874;-46
2021/09/16 03:04:27;;;;;;;4.27;3.00;;;;;;;;;;5032306;28;20887;-45
2021/09/16 03:06:53;;;;;;;4.40;2.30;;;;;;;;;;5032230;28;20883;-49
2021/09/16 03:09:19;;;;;;;2.10;2.00;;;;;;;;;;5032026;28;20833;-44
2021/09/16 03:11:45;;;;;;;2.50;2.30;;;;;;;;;;5032092;28;20801;-45
2021/09/16 03:14:11;;;;;;;5.40;3.40;;;;;;;;;;5032012;28;20382;-45
2021/09/16 03:16:37;;;;;;;2.20;1.80;;;;;;;;;;5031914;28;21013;-44
2021/09/16 03:19:03;;;;;;;2.53;1.33;;;;;;;;;;5032031;28;20781;-45
2021/09/16 03:21:29;;;;;;;4.40;1.70;;;;;;;;;;5031964;28;20457;-45
2021/09/16 03:23:55;;;;;;;1.40;1.30;;;;;;;;;;5031768;28;20409;-45
2021/09/16 03:26:21;;;;;;;4.70;1.47;;;;;;;;;;5032039;28;20400;-45
2021/09/16 03:28:47;;;;;;;1.80;1.70;;;;;;;;;;5031844;28;20559;-44
2021/09/16 03:31:13;;;;;;;6.97;1.87;;;;;;;;;;5031888;28;20410;-45
2021/09/16 03:33:39;;;;;;;3.37;1.53;;;;;;;;;;5031577;28;20398;-47
2021/09/16 03:36:05;;;;;;;5.63;1.70;;;;;;;;;;5031775;28;20455;-47
2021/09/16 03:38:31;;;;;;;5.70;2.30;;;;;;;;;;5031744;28;20414;-44
2021/09/16 03:40:57;;;;;;;6.93;2.27;;;;;;;;;;5031847;28;20381;-45
2021/09/16 03:43:23;;;;;;;2.43;1.80;;;;;;;;;;5031612;28;20437;-44
2021/09/16 03:45:49;;;;;;;2.47;1.90;;;;;;;;;;5031752;28;20392;-44
2021/09/16 03:48:15;;;;;;;4.77;2.17;;;;;;;;;;5031559;28;20796;-45
2021/09/16 03:50:41;;;;;;;1.33;1.23;;;;;;;;;;5031678;28;20409;-44
2021/09/16 03:53:07;;;;;;;2.30;1.53;;;;;;;;;;5031493;28;20442;-44
2021/09/16 03:55:33;;;;;;;3.00;2.00;;;;;;;;;;5031564;28;20420;-44
2021/09/16 03:57:59;;;;;;;4.93;1.87;;;;;;;;;;5031895;28;20548;-45
2021/09/16 04:00:25;;;;;;;4.20;2.20;;;;;;;;;;5031781;28;20424;-45
2021/09/16 04:02:51;;;;;;;2.13;1.83;;;;;;;;;;5031302;28;20385;-45
2021/09/16 04:05:17;;;;;;;2.13;1.93;;;;;;;;;;5031534;28;20381;-46
2021/09/16 04:07:43;;;;;;;0.70;0.67;;;;;;;;;;5031334;28;20469;-47
2021/09/16 04:10:10;;;;;;;0.90;0.90;;;;;;;;;;5031551;28;20369;-48
2021/09/16 04:12:36;;;;;;;3.63;0.90;;;;;;;;;;5033842;28;20402;-45
2021/09/16 04:15:03;;;;;;;0.70;0.70;;;;;;;;;;5035497;28;20398;-45
2021/09/16 04:17:29;;;;;;;1.53;1.43;;;;;;;;;;5035182;28;20419;-43
2021/09/16 04:19:55;;;;;;;0.70;0.70;;;;;;;;;;5035793;28;20369;-45
2021/09/16 04:22:21;;;;;;;1.00;0.90;;;;;;;;;;5034973;28;20373;-45
2021/09/16 04:24:47;;;;;;;1.63;1.53;;;;;;;;;;5035371;28;20496;-46
2021/09/16 04:27:13;;;;;;;0.90;0.83;;;;;;;;;;5035940;28;20942;-50
2021/09/16 04:29:39;;;;;;;0.73;0.73;;;;;;;;;;5035074;28;20818;-51
2021/09/16 04:32:06;;;;;;;1.27;1.17;;;;;;;;;;5034827;28;20489;-50
2021/09/16 04:34:32;;;;;;;0.80;0.80;;;;;;;;;;5035134;28;20818;-51
2021/09/16 04:36:58;;;;;;;0.87;0.87;;;;;;;;;;5035378;28;20425;-50
2021/09/16 04:39:24;;;;;;;1.37;1.13;;;;;;;;;;5034939;28;20414;-50
2021/09/16 04:41:50;;;;;;;1.50;1.40;;;;;;;;;;5034884;28;20379;-51
2021/09/16 04:44:16;;;;;;;0.90;0.90;;;;;;;;;;5034782;28;20403;-49
2021/09/16 04:46:42;;;;;;;1.00;0.90;;;;;;;;;;5034691;28;20420;-48
2021/09/16 04:49:08;;;;;;;1.03;0.93;;;;;;;;;;5034642;28;20487;-51
2021/09/16 04:51:34;;;;;;;0.90;0.90;;;;;;;;;;5034683;28;20453;-49
2021/09/16 04:54:00;;;;;;;2.23;1.47;;;;;;;;;;5034559;28;20408;-48
2021/09/16 04:56:26;;;;;;;0.80;0.80;;;;;;;;;;5034622;28;20895;-48
2021/09/16 04:58:52;;;;;;;1.00;0.90;;;;;;;;;;5034696;28;20377;-51
2021/09/16 05:01:18;;;;;;;1.23;1.13;;;;;;;;;;5034539;28;20877;-51
2021/09/16 05:03:44;;;;;;;1.10;1.10;;;;;;;;;;5034349;28;20410;-51
2021/09/16 05:06:10;;;;;;;2.57;1.17;;;;;;;;;;5034395;28;20395;-50
2021/09/16 05:08:36;;;;;;;1.20;1.00;;;;;;;;;;5034617;28;20457;-50
2021/09/16 05:11:02;;;;;;;1.33;1.23;;;;;;;;;;5034360;28;20404;-51
2021/09/16 05:13:28;;;;;;;1.00;0.90;;;;;;;;;;5034210;28;20408;-51
2021/09/16 05:15:54;;;;;;;0.90;0.80;;;;;;;;;;5034176;28;20445;-49
2021/09/16 05:18:20;;;;;;;1.10;1.00;;;;;;;;;;5034238;28;20404;-50
2021/09/16 05:20:46;;;;;;;0.80;0.70;;;;;;;;;;5034172;28;20405;-50
2021/09/16 05:23:12;;;;;;;1.40;1.30;;;;;;;;;;5032918;28;20496;-49
2021/09/16 05:25:38;;;;;;;4.50;1.40;;;;;;;;;;5034056;28;20400;-48
2021/09/16 05:28:04;;;;;;;0.70;0.70;;;;;;;;;;5034004;28;20492;-50
2021/09/16 05:30:30;;;;;;;0.90;0.63;;;;;;;;;;5034042;28;20403;-51
2021/09/16 05:32:56;;;;;;;0.90;0.70;;;;;;;;;;5033676;28;20813;-50
2021/09/16 05:35:22;;;;;;;1.47;1.37;;;;;;;;;;5034113;28;20411;-51
2021/09/16 05:37:48;;;;;;;0.90;0.70;;;;;;;;;;5033879;28;20441;-51
2021/09/16 05:40:14;;;;;;;1.53;1.43;;;;;;;;;;5033838;28;20411;-49
2021/09/16 05:42:40;;;;;;;0.77;0.77;;;;;;;;;;5033550;28;20400;-51
2021/09/16 05:45:07;;;;;;;0.77;0.77;;;;;;;;;;5033848;28;20402;-50
2021/09/16 05:47:33;;;;;;;1.13;1.13;;;;;;;;;;5033501;28;20396;-51
2021/09/16 05:49:59;;;;;;;2.03;1.93;;;;;;;;;;5033687;28;20497;-50
2021/09/16 05:52:25;;;;;;;1.03;0.93;;;;;;;;;;5033347;28;20868;-50
2021/09/16 05:54:51;;;;;;;1.30;1.07;;;;;;;;;;5033816;28;20419;-51
2021/09/16 05:57:17;;;;;;;1.17;1.07;;;;;;;;;;5033724;28;20513;-51
2021/09/16 05:59:43;;;;;;;1.67;1.57;;;;;;;;;;5033442;28;20376;-51
2021/09/16 06:02:09;;;;;;;2.03;1.93;;;;;;;;;;5033214;28;20402;-49
2021/09/16 06:04:35;;;;;;;1.10;1.00;;;;;;;;;;5033432;28;20467;-50
2021/09/16 06:07:03;;;;;;;1.30;1.20;;;;;;;;;;5033296;28;20427;-49
2021/09/16 06:09:30;;;;;;;2.00;1.80;;;;;;;;;;5031267;28;20989;-50
2021/09/16 06:11:56;;;;;;;2.47;2.23;;;;;;;;;;5031735;28;20438;-51
2021/09/16 06:14:22;;;;;;;4.63;1.27;;;;;;;;;;5030932;28;20416;-50
2021/09/16 06:16:48;;;;;;;1.23;1.13;;;;;;;;;;5036324;28;20460;-48
2021/09/16 06:19:14;;;;;;;2.50;1.70;;;;;;;;;;5030406;28;20412;-50
2021/09/16 06:21:41;;;;;;;1.47;1.37;;;;;;;;;;5030902;28;20450;-50
2021/09/16 06:24:07;;;;;;;1.07;0.97;;;;;;;;;;5030851;28;20434;-50
2021/09/16 06:26:33;;;;;;;1.10;1.00;;;;;;;;;;5030960;28;20401;-51
2021/09/16 06:28:59;;;;;;;1.90;1.80;;;;;;;;;;5030791;28;20443;-51
2021/09/16 06:31:25;;;;;;;1.27;1.17;;;;;;;;;;5030957;28;20405;-50
2021/09/16 06:33:51;;;;;;;3.17;2.97;;;;;;;;;;5032590;28;20457;-51
2021/09/16 06:36:17;;;;;;;1.27;1.10;;;;;;;;;;5032641;28;20418;-51
2021/09/16 06:38:43;;;;;;;1.90;1.80;;;;;;;;;;5032688;28;20437;-50
2021/09/16 06:41:09;;;;;;;1.13;1.03;;;;;;;;;;5032635;28;20369;-51
2021/09/16 06:43:35;;;;;;;2.50;1.73;;;;;;;;;;5031846;28;20392;-48
2021/09/16 06:46:01;;;;;;;1.77;1.67;;;;;;;;;;5032029;28;20441;-50
2021/09/16 06:48:27;;;;;;;1.53;1.43;;;;;;;;;;5032094;28;20950;-50
2021/09/16 06:50:53;;;;;;;1.10;1.00;;;;;;;;;;5013765;28;20421;-49
2021/09/16 06:53:19;;;;;;;2.60;1.40;;;;;;;;;;5030943;28;20377;-51
2021/09/16 06:55:45;;;;;;;3.03;1.90;;;;;;;;;;5031749;28;20461;-51
2021/09/16 06:58:11;;;;;;;1.87;1.37;;;;;;;;;;5032376;28;20388;-51
2021/09/16 07:00:37;;;;;;;1.53;1.43;;;;;;;;;;5032189;28;20890;-51
2021/09/16 07:03:03;;;;;;;19.73;4.50;;;;;;;;;;5032038;28;20454;-51
2021/09/16 07:05:29;;;;;;;1.90;1.70;;;;;;;;;;5032533;28;20718;-49
2021/09/16 07:07:55;;;;;;;1.67;1.50;;;;;;;;;;5032115;28;20483;-50
2021/09/16 07:10:21;;;;;;;1.10;1.00;;;;;;;;;;5031440;28;20389;-48
2021/09/16 07:12:47;;;;;;;1.40;1.30;;;;;;;;;;5031329;28;20380;-48
2021/09/16 07:15:13;;;;;;;12.53;1.30;;;;;;;;;;5022801;28;20385;-51
2021/09/16 07:17:39;;;;;;;1.33;1.23;;;;;;;;;;5012175;28;20374;-50
2021/09/16 07:20:06;;;;;;;3.40;3.20;;;;;;;;;;5027740;28;20383;-50
2021/09/16 07:22:32;;;;;;;5.07;3.87;;;;;;;;;;5032054;28;20422;-48
2021/09/16 07:24:58;;;;;;;2.60;1.63;;;;;;;;;;5031995;28;20395;-48
2021/09/16 07:27:24;;;;;;;3.17;2.33;;;;;;;;;;5031828;28;20385;-51
2021/09/16 07:29:50;;;;;;;7.63;5.00;;;;;;;;;;5031375;28;20467;-52
2021/09/16 07:32:16;;;;;;;9.93;6.30;;;;;;;;;;5030193;28;20405;-50
2021/09/16 07:34:42;;;;;;;7.53;6.03;;;;;;;;;;5031668;28;20906;-50
2021/09/16 07:37:08;;;;;;;8.83;5.97;;;;;;;;;;5031813;28;20408;-51
2021/09/16 07:39:34;;;;;;;7.40;5.57;;;;;;;;;;5031633;28;20416;-50
2021/09/16 07:42:00;;;;;;;8.50;5.10;;;;;;;;;;5030256;28;20421;-48
2021/09/16 07:44:26;;;;;;;7.77;6.03;;;;;;;;;;5030571;28;20925;-50
2021/09/16 07:46:52;;;;;;;6.37;5.10;;;;;;;;;;5034435;28;20409;-51
2021/09/16 07:49:18;;;;;;;9.43;6.20;;;;;;;;;;5038117;28;20522;-50
2021/09/16 07:51:44;;;;;;;7.20;5.80;;;;;;;;;;5038137;28;20403;-51
2021/09/16 07:54:11;;;;;;;9.33;6.20;;;;;;;;;;5037853;28;20488;-48
2021/09/16 07:56:38;;;;;;;10.30;6.20;;;;;;;;;;5037965;28;20421;-50
2021/09/16 07:59:04;;;;;;;11.50;7.50;;;;;;;;;;5038091;28;20471;-52
2021/09/16 08:01:30;;;;;;;21.47;7.23;;;;;;;;;;5038142;28;20820;-51
2021/09/16 08:03:56;;;;;;;7.10;6.40;;;;;;;;;;5037785;28;20384;-51
2021/09/16 08:06:22;;;;;;;11.60;8.80;;;;;;;;;;5038120;28;20802;-51
2021/09/16 08:08:47;;;;;;;10.20;7.40;;;;;;;;;;5038402;28;20845;-50
2021/09/16 08:11:13;;;;;;;8.03;6.43;;;;;;;;;;5037935;28;20383;-51
2021/09/16 08:13:39;;;;;;;11.00;6.83;;;;;;;;;;5037762;28;20485;-50
2021/09/16 08:16:05;;;;;;;13.23;8.20;;;;;;;;;;5037800;28;20445;-50
2021/09/16 08:18:31;;;;;;;12.93;7.50;;;;;;;;;;5038067;28;20413;-48
2021/09/16 08:20:58;;;;;;;9.27;7.80;;;;;;;;;;5038079;28;20375;-51
2021/09/16 08:23:25;;;;;;;9.07;7.80;;;;;;;;;;5037781;28;20398;-50
2021/09/16 08:25:51;;;;;;;11.93;7.80;;;;;;;;;;5037861;28;20426;-49
2021/09/16 08:28:17;;;;;;;14.17;7.27;;;;;;;;;;5037889;28;20429;-51
2021/09/16 08:30:44;;;;;;;14.70;6.93;;;;;;;;;;5037806;28;20424;-50
2021/09/16 08:33:10;;;;;;;9.37;7.47;;;;;;;;;;5037711;28;20373;-50
2021/09/16 08:35:36;;;;;;;9.10;7.20;;;;;;;;;;5038160;28;20464;-51
2021/09/16 08:38:02;;;;;;;12.50;7.73;;;;;;;;;;5037861;28;20442;-51
2021/09/16 08:40:28;;;;;;;10.10;7.13;;;;;;;;;;5037651;28;20779;-49
2021/09/16 08:42:54;;;;;;;9.73;7.10;;;;;;;;;;5037586;28;20850;-51
2021/09/16 08:45:21;;;;;;;15.10;7.30;;;;;;;;;;5037793;28;20489;-51
2021/09/16 08:47:49;;;;;;;11.67;7.37;;;;;;;;;;5037698;28;20409;-51
2021/09/16 08:50:15;;;;;;;11.10;7.90;;;;;;;;;;5037700;28;20377;-51
2021/09/16 08:52:42;;;;;;;7.07;6.37;;;;;;;;;;5037424;28;20870;-51
2021/09/16 08:55:09;;;;;;;8.30;7.20;;;;;;;;;;5037500;28;20369;-52
2021/09/16 08:57:37;;;;;;;11.20;7.63;;;;;;;;;;5037121;28;20389;-50
2021/09/16 09:00:07;;;;;;;9.20;6.90;;;;;;;;;;5034601;28;20394;-50
2021/09/16 09:02:34;;;;;;;10.50;7.00;;;;;;;;;;5034384;28;20442;-51
2021/09/16 09:05:00;;;;;;;10.43;8.30;;;;;;;;;;5034575;28;20407;-52
2021/09/16 09:07:36;;;;;;;13.40;7.90;;;;;;;;;;5034477;28;20398;-51
2021/09/16 09:10:02;;;;;;;8.70;6.97;;;;;;;;;;5034535;28;20872;-51
2021/09/16 09:12:33;;;;;;;14.13;7.40;;;;;;;;;;5034355;28;20373;-51
2021/09/16 09:14:59;;;;;;;14.50;8.40;;;;;;;;;;5034427;28;20393;-51
2021/09/16 09:17:31;;;;;;;10.23;6.50;;;;;;;;;;5034252;28;20507;-51
2021/09/16 09:20:05;;;;;;;19.17;8.17;;;;;;;;;;5034172;28;20891;-50
2021/09/16 09:22:33;;;;;;;11.47;6.93;;;;;;;;;;5034009;28;20370;-51
2021/09/16 09:25:00;;;;;;;11.83;8.23;;;;;;;;;;5034206;28;20398;-52
2021/09/16 09:27:31;;;;;;;15.90;7.93;;;;;;;;;;5034032;28;20424;-49
2021/09/16 09:30:23;;;;;;;10.93;6.83;;;;;;;;;;5034077;28;20424;-51
2021/09/16 09:32:55;;;;;;;8.27;7.37;;;;;;;;;;5030245;28;20787;-51
2021/09/16 09:35:38;;;;;;;11.27;7.50;;;;;;;;;;5033892;28;20391;-50
2021/09/16 09:38:06;;;;;;;8.73;7.83;;;;;;;;;;5033921;28;20438;-50
2021/09/16 09:40:35;;;;;;;10.67;7.33;;;;;;;;;;5033890;28;20372;-51
2021/09/16 09:43:17;;;;;;;7.93;6.80;;;;;;;;;;5033497;28;20392;-51
2021/09/16 09:46:03;;;;;;;12.03;7.80;;;;;;;;;;5033653;28;20545;-49
2021/09/16 09:48:29;;;;;;;9.60;6.70;;;;;;;;;;5033768;28;20447;-51
2021/09/16 09:50:55;;;;;;;7.90;7.17;;;;;;;;;;5033625;28;20454;-52
2021/09/16 09:53:21;;;;;;;7.63;6.83;;;;;;;;;;5033477;28;20405;-51
2021/09/16 09:55:49;;;;;;;9.90;7.60;;;;;;;;;;5033520;28;20512;-51
2021/09/16 09:58:16;;;;;;;8.33;5.67;;;;;;;;;;5033605;28;20437;-52
2021/09/16 10:00:42;;;;;;;8.50;5.60;;;;;;;;;;5033609;28;20409;-50
2021/09/16 10:03:08;;;;;;;9.10;7.97;;;;;;;;;;5033208;28;20389;-51
2021/09/16 10:05:36;;;;;;;10.10;6.67;;;;;;;;;;5033504;28;20730;-49
2021/09/16 10:08:08;;;;;;;6.83;5.73;;;;;;;;;;5033274;28;20451;-51
2021/09/16 10:10:43;;;;;;;7.70;5.90;;;;;;;;;;5032861;28;20372;-51
2021/09/16 10:13:17;;;;;;;18.67;8.30;;;;;;;;;;5033062;28;20402;-52
2021/09/16 10:15:43;;;;;;;10.13;5.73;;;;;;;;;;5033103;28;20669;-52
2021/09/16 10:18:09;;;;;;;11.80;8.10;;;;;;;;;;5033228;28;20411;-52
2021/09/16 10:20:35;;;;;;;10.47;7.83;;;;;;;;;;5033104;28;20511;-51
2021/09/16 10:23:04;;;;;;;7.97;7.00;;;;;;;;;;5032866;28;20417;-52
2021/09/16 10:25:30;;;;;;;7.97;7.17;;;;;;;;;;5033074;28;20445;-48
2021/09/16 10:28:00;;;;;;;14.20;7.47;;;;;;;;;;5033686;28;20907;-47
2021/09/16 10:30:26;;;;;;;5.90;5.23;;;;;;;;;;5032958;28;20435;-49
2021/09/16 10:33:03;;;;;;;6.73;6.10;;;;;;;;;;5032714;28;20399;-45
2021/09/16 10:35:30;;;;;;;8.73;6.17;;;;;;;;;;5033168;28;20412;-47
2021/09/16 10:37:56;;;;;;;7.10;5.53;;;;;;;;;;5032805;28;20405;-46
2021/09/16 10:40:26;;;;;;;8.70;5.80;;;;;;;;;;5032790;28;20441;-46
2021/09/16 10:42:54;;;;;;;6.43;4.90;;;;;;;;;;5032499;28;20407;-46
2021/09/16 10:45:34;;;;;;;8.40;5.20;;;;;;;;;;5032720;28;20541;-46
2021/09/16 10:48:15;;;;;;;9.30;4.30;;;;;;;;;;5032185;28;20468;-46
2021/09/16 10:50:54;;;;;;;4.40;3.50;;;;;;;;;;5024866;28;20909;-49
2021/09/16 10:53:33;;;;;;;6.40;4.53;;;;;;;;;;5031603;28;20410;-49
2021/09/16 10:55:59;;;;;;;7.47;4.57;;;;;;;;;;5029480;28;20421;-49
2021/09/16 10:58:28;;;;;;;5.30;4.13;;;;;;;;;;5030805;28;20905;-46
2021/09/16 11:00:54;;;;;;;4.67;4.17;;;;;;;;;;5031867;28;20433;-46
2021/09/16 11:03:20;;;;;;;3.40;3.10;;;;;;;;;;5032191;28;20410;-47
2021/09/16 11:05:48;;;;;;;91.17;23.77;;;;;;;;;;5032166;28;20425;-49
2021/09/16 11:08:15;;;;;;;8.23;3.20;;;;;;;;;;5032073;28;20450;-46
2021/09/16 11:10:41;;;;;;;9.43;5.50;;;;;;;;;;5031871;28;20406;-49
2021/09/16 11:13:25;;;;;;;3.30;3.00;;;;;;;;;;5031844;28;20740;-46
2021/09/16 11:15:55;;;;;;;2.50;2.30;;;;;;;;;;5032148;28;20952;-49
2021/09/16 11:18:22;;;;;;;3.60;3.10;;;;;;;;;;5032267;28;20464;-46
2021/09/16 11:20:49;;;;;;;8.50;3.97;;;;;;;;;;5031326;28;20401;-52
2021/09/16 11:23:17;;;;;;;5.20;4.50;;;;;;;;;;5032045;28;20464;-46
2021/09/16 11:25:45;;;;;;;4.23;3.93;;;;;;;;;;5031848;28;20786;-46
2021/09/16 11:28:11;;;;;;;6.30;3.53;;;;;;;;;;5031953;28;20454;-46
2021/09/16 11:30:38;;;;;;;4.07;3.67;;;;;;;;;;5031563;28;20767;-46
2021/09/16 11:33:05;;;;;;;4.47;3.50;;;;;;;;;;5031002;28;20438;-45
2021/09/16 11:35:31;;;;;;;4.60;4.20;;;;;;;;;;5031685;28;20429;-47
2021/09/16 11:37:58;;;;;;;6.70;3.40;;;;;;;;;;5031817;28;20428;-46
2021/09/16 11:40:25;;;;;;;3.37;3.17;;;;;;;;;;5031801;28;20894;-45
2021/09/16 11:42:59;;;;;;;11.80;7.30;;;;;;;;;;5031556;28;20893;-47
2021/09/16 11:45:26;;;;;;;4.63;3.57;;;;;;;;;;5031755;28;20405;-48
2021/09/16 11:48:14;;;;;;;3.60;2.93;;;;;;;;;;5031610;28;20406;-49
2021/09/16 11:50:44;;;;;;;5.53;3.50;;;;;;;;;;5031783;28;20401;-48
2021/09/16 11:53:10;;;;;;;3.10;2.47;;;;;;;;;;5031386;28;20398;-47
2021/09/16 11:55:43;;;;;;;2.90;2.70;;;;;;;;;;5031655;28;20422;-48
2021/09/16 11:58:23;;;;;;;3.70;3.40;;;;;;;;;;5031724;28;20394;-46
2021/09/16 12:01:14;;;;;;;4.50;3.50;;;;;;;;;;5030680;28;20433;-46
2021/09/16 12:03:40;;;;;;;7.40;3.67;;;;;;;;;;5019580;28;20416;-46
2021/09/16 12:06:07;;;;;;;3.93;3.73;;;;;;;;;;5030905;28;20443;-46
2021/09/16 12:08:37;;;;;;;3.30;3.10;;;;;;;;;;5030569;28;20515;-48
2021/09/16 12:11:14;;;;;;;4.10;3.70;;;;;;;;;;5011418;28;20404;-48
2021/09/16 12:13:41;;;;;;;5.10;4.60;;;;;;;;;;5020653;28;20374;-47
2021/09/16 12:16:10;;;;;;;2.73;2.53;;;;;;;;;;5031333;28;20450;-46
2021/09/16 12:18:37;;;;;;;8.70;3.50;;;;;;;;;;5031304;28;20410;-48
2021/09/16 12:21:04;;;;;;;4.40;3.30;;;;;;;;;;5031704;28;20408;-45
2021/09/16 12:23:31;;;;;;;5.00;3.20;;;;;;;;;;5031122;28;20772;-46
2021/09/16 12:25:58;;;;;;;5.80;3.20;;;;;;;;;;5031142;28;20514;-47
2021/09/16 12:28:24;;;;;;;2.70;2.50;;;;;;;;;;5031520;28;20500;-46
2021/09/16 12:30:51;;;;;;;2.40;2.20;;;;;;;;;;5031273;28;20475;-46
2021/09/16 12:33:36;;;;;;;2.53;2.13;;;;;;;;;;5033121;28;20407;-49
2021/09/16 12:36:09;;;;;;;2.87;2.60;;;;;;;;;;5034850;28;20427;-45
2021/09/16 12:38:44;;;;;;;2.40;2.20;;;;;;;;;;5035164;28;20407;-49
2021/09/16 12:41:23;;;;;;;6.10;2.70;;;;;;;;;;5034965;28;20778;-46
2021/09/16 12:43:59;;;;;;;2.80;2.60;;;;;;;;;;5034694;28;20417;-46
2021/09/16 12:46:25;;;;;;;3.60;3.27;;;;;;;;;;5034705;28;20455;-46
2021/09/16 12:48:51;;;;;;;3.73;2.60;;;;;;;;;;5034729;28;20948;-46
2021/09/16 12:51:19;;;;;;;3.63;2.93;;;;;;;;;;5034836;28;20412;-45
2021/09/16 12:53:47;;;;;;;3.00;2.80;;;;;;;;;;5034533;28;20415;-47
2021/09/16 12:56:13;;;;;;;3.00;2.80;;;;;;;;;;5034665;28;20432;-45
2021/09/16 12:58:39;;;;;;;4.80;2.60;;;;;;;;;;5034683;28;20772;-46
2021/09/16 13:01:06;;;;;;;3.53;2.60;;;;;;;;;;5034430;28;20494;-47
2021/09/16 13:03:32;;;;;;;4.30;3.87;;;;;;;;;;5034644;28;20412;-46
2021/09/16 13:06:08;;;;;;;3.30;3.00;;;;;;;;;;5034336;28;20518;-46
2021/09/16 13:08:39;;;;;;;5.70;4.30;;;;;;;;;;5034497;28;20450;-48
2021/09/16 13:11:18;;;;;;;4.97;4.57;;;;;;;;;;5034375;28;20392;-46
2021/09/16 13:13:44;;;;;;;5.10;4.70;;;;;;;;;;5033962;28;20409;-46
2021/09/16 13:16:10;;;;;;;8.07;4.17;;;;;;;;;;5034149;28;20456;-46
2021/09/16 13:18:36;;;;;;;4.50;3.80;;;;;;;;;;5034298;28;20413;-46
2021/09/16 13:21:02;;;;;;;3.30;3.00;;;;;;;;;;5034182;28;20406;-47
2021/09/16 13:23:28;;;;;;;2.70;2.60;;;;;;;;;;5034025;28;20407;-46
2021/09/16 13:25:54;;;;;;;2.50;2.33;;;;;;;;;;5033936;28;20946;-46
2021/09/16 13:28:20;;;;;;;4.33;3.17;;;;;;;;;;5033983;28;20456;-46
2021/09/16 13:30:46;;;;;;;3.30;2.67;;;;;;;;;;5034030;28;20886;-45
2021/09/16 13:33:12;;;;;;;3.70;3.17;;;;;;;;;;5033719;28;20398;-46
2021/09/16 13:35:39;;;;;;;5.83;3.37;;;;;;;;;;5034186;28;20423;-46
2021/09/16 13:38:05;;;;;;;2.60;2.40;;;;;;;;;;5033956;28;20810;-46
2021/09/16 13:40:33;;;;;;;2.67;2.50;;;;;;;;;;5033790;28;20406;-45
2021/09/16 13:43:01;;;;;;;3.17;2.23;;;;;;;;;;5033722;28;20398;-46
2021/09/16 13:45:27;;;;;;;5.83;3.20;;;;;;;;;;5032879;28;20431;-47
2021/09/16 13:47:53;;;;;;;2.43;2.23;;;;;;;;;;5033727;28;20925;-47
2021/09/16 13:50:20;;;;;;;3.83;3.20;;;;;;;;;;5033735;28;20460;-49
2021/09/16 13:52:47;;;;;;;3.10;2.90;;;;;;;;;;5033710;28;20812;-46
2021/09/16 13:55:13;;;;;;;2.77;2.57;;;;;;;;;;5033252;28;20525;-45
2021/09/16 13:57:39;;;;;;;2.57;2.37;;;;;;;;;;5033597;28;20597;-45
2021/09/16 14:00:06;;;;;;;3.60;2.67;;;;;;;;;;5033517;28;20985;-45
2021/09/16 14:02:33;;;;;;;2.60;2.40;;;;;;;;;;5033376;28;20492;-46
2021/09/16 14:04:59;;;;;;;5.53;3.23;;;;;;;;;;5033354;28;20412;-45
2021/09/16 14:07:25;;;;;;;5.60;2.70;;;;;;;;;;5033170;28;20435;-45
2021/09/16 14:09:51;;;;;;;3.10;2.47;;;;;;;;;;5033276;28;20494;-46
2021/09/16 14:12:17;;;;;;;5.30;2.00;;;;;;;;;;5032655;28;20408;-46
2021/09/16 14:14:45;;;;;;;3.70;1.60;;;;;;;;;;5033296;28;20584;-48
2021/09/16 14:17:11;;;;;;;1.50;1.40;;;;;;;;;;5033102;28;20461;-46
2021/09/16 14:19:37;;;;;;;3.10;1.57;;;;;;;;;;5033297;28;20454;-47
2021/09/16 14:22:03;;;;;;;12.27;1.63;;;;;;;;;;5033013;28;20398;-48
2021/09/16 14:24:29;;;;;;;3.00;1.87;;;;;;;;;;5032913;28;20422;-46
2021/09/16 14:26:55;;;;;;;2.03;1.47;;;;;;;;;;5033176;28;20427;-48
2021/09/16 14:29:21;;;;;;;2.70;1.80;;;;;;;;;;5032925;28;20464;-46
2021/09/16 14:31:47;;;;;;;1.50;1.40;;;;;;;;;;5032956;28;20406;-46
2021/09/16 14:34:13;;;;;;;1.50;1.40;;;;;;;;;;5032732;28;20401;-46
2021/09/16 14:36:43;;;;;;;2.13;1.60;;;;;;;;;;5032848;28;20417;-46
2021/09/16 14:39:09;;;;;;;1.20;1.10;;;;;;;;;;5032743;28;20409;-46
2021/09/16 14:41:35;;;;;;;1.80;1.10;;;;;;;;;;5032821;28;20402;-47